createdAt,value
2023-04-22T00:01:20.581Z,81
2023-04-22T00:05:22.399Z,82
2023-04-22T00:09:22.465Z,82
2023-04-22T00:13:22.478Z,82
2023-04-22T00:15:22.340Z,82
2023-04-22T00:19:22.150Z,82
2023-04-22T00:21:22.096Z,82
2023-04-22T00:23:30.285Z,82
2023-04-22T00:25:22.120Z,82
2023-04-22T00:29:22.208Z,82
2023-04-22T00:31:31.415Z,82
2023-04-22T00:33:22.058Z,83
2023-04-22T00:35:28.050Z,83
2023-04-22T00:37:22.064Z,83
2023-04-22T00:39:22.220Z,82
2023-04-22T00:41:21.638Z,82
2023-04-22T00:43:31.004Z,83
2023-04-22T00:45:22.043Z,83
2023-04-22T00:47:25.666Z,83
2023-04-22T00:49:21.736Z,83
2023-04-22T00:51:25.253Z,83
2023-04-22T00:53:21.831Z,83
2023-04-22T00:55:22.142Z,83
2023-04-22T00:57:22.207Z,83
2023-04-22T00:59:21.994Z,83
2023-04-22T01:01:31.079Z,83
2023-04-22T01:03:22.153Z,83
2023-04-22T01:05:23.023Z,83
2023-04-22T01:07:22.073Z,83
2023-04-22T01:09:22.112Z,83
2023-04-22T01:11:24.401Z,83
2023-04-22T01:13:22.158Z,83
2023-04-22T01:15:22.147Z,83
2023-04-22T01:17:22.272Z,83
2023-04-22T01:21:22.162Z,83
2023-04-22T01:23:30.480Z,83
2023-04-22T01:25:21.848Z,83
2023-04-22T01:27:21.535Z,83
2023-04-22T01:29:22.035Z,83
2023-04-22T01:31:31.554Z,83
2023-04-22T01:33:22.122Z,83
2023-04-22T01:35:29.891Z,83
2023-04-22T01:37:22.129Z,83
2023-04-22T01:39:22.177Z,83
2023-04-22T01:41:24.467Z,83
2023-04-22T01:43:22.156Z,83
2023-04-22T01:45:22.153Z,83
2023-04-22T01:47:21.629Z,83
2023-04-22T01:49:22.169Z,84
2023-04-22T01:51:22.127Z,83
2023-04-22T01:53:22.219Z,83
2023-04-22T01:55:22.185Z,83
2023-04-22T01:57:22.156Z,83
2023-04-22T01:59:22.139Z,83
2023-04-22T02:01:22.178Z,83
2023-04-22T02:03:22.250Z,83
2023-04-22T02:05:22.253Z,83
2023-04-22T02:07:22.086Z,83
2023-04-22T02:09:22.130Z,83
2023-04-22T02:11:22.128Z,83
2023-04-22T02:13:31.207Z,83
2023-04-22T02:15:22.214Z,83
2023-04-22T02:17:22.147Z,84
2023-04-22T02:19:22.265Z,83
2023-04-22T02:21:22.131Z,84
2023-04-22T02:23:22.095Z,84
2023-04-22T02:25:22.265Z,84
2023-04-22T02:27:22.151Z,84
2023-04-22T02:29:25.492Z,84
2023-04-22T02:31:21.524Z,84
2023-04-22T02:33:22.074Z,84
2023-04-22T02:35:22.691Z,84
2023-04-22T02:37:19.695Z,84
2023-04-22T02:39:22.179Z,84
2023-04-22T02:41:22.050Z,84
2023-04-22T02:43:31.476Z,84
2023-04-22T02:45:22.157Z,84
2023-04-22T02:47:22.080Z,84
2023-04-22T02:49:31.451Z,84
2023-04-22T02:51:22.091Z,84
2023-04-22T02:53:22.150Z,84
2023-04-22T02:57:21.466Z,84
2023-04-22T02:59:24.037Z,84
2023-04-22T03:01:22.107Z,84
2023-04-22T03:03:21.735Z,85
2023-04-22T03:05:28.392Z,85
2023-04-22T03:07:22.144Z,85
2023-04-22T03:09:22.098Z,84
2023-04-22T03:11:24.434Z,85
2023-04-22T03:13:22.059Z,84
2023-04-22T03:15:22.157Z,84
2023-04-22T03:17:22.139Z,84
2023-04-22T03:19:31.426Z,84
2023-04-22T03:21:22.042Z,84
2023-04-22T03:23:22.060Z,84
2023-04-22T03:25:22.192Z,85
2023-04-22T03:27:22.134Z,85
2023-04-22T03:29:22.082Z,85
2023-04-22T03:31:20.662Z,85
2023-04-22T03:33:22.177Z,85
2023-04-22T03:35:22.131Z,85
2023-04-22T03:37:31.091Z,85
2023-04-22T03:39:20.560Z,85
2023-04-22T03:41:25.801Z,85
2023-04-22T03:43:21.516Z,85
2023-04-22T03:45:22.116Z,85
2023-04-22T03:47:27.579Z,85
2023-04-22T03:49:22.053Z,85
2023-04-22T03:51:26.716Z,85
2023-04-22T03:53:22.192Z,85
2023-04-22T03:55:22.122Z,85
2023-04-22T03:57:22.244Z,85
2023-04-22T03:59:21.710Z,85
2023-04-22T04:01:22.030Z,85
2023-04-22T04:03:31.110Z,85
2023-04-22T04:05:22.222Z,85
2023-04-22T04:07:22.205Z,85
2023-04-22T04:09:23.031Z,85
2023-04-22T04:11:22.067Z,84
2023-04-22T04:13:21.965Z,84
2023-04-22T04:15:22.249Z,84
2023-04-22T04:17:26.050Z,85
2023-04-22T04:19:22.054Z,85
2023-04-22T04:21:22.121Z,84
2023-04-22T04:23:22.221Z,85
2023-04-22T04:25:32.428Z,84
2023-04-22T04:27:21.671Z,84
2023-04-22T04:29:24.934Z,84
2023-04-22T04:31:22.037Z,83
2023-04-22T04:33:26.086Z,83
2023-04-22T04:37:21.649Z,83
2023-04-22T04:39:22.087Z,83
2023-04-22T04:41:21.963Z,83
2023-04-22T04:43:22.197Z,83
2023-04-22T04:45:22.165Z,83
2023-04-22T04:47:22.050Z,83
2023-04-22T04:49:32.048Z,83
2023-04-22T04:51:22.100Z,82
2023-04-22T04:53:22.399Z,83
2023-04-22T04:55:21.693Z,83
2023-04-22T04:57:22.093Z,83
2023-04-22T04:59:23.070Z,82
2023-04-22T05:01:22.070Z,83
2023-04-22T05:03:25.641Z,83
2023-04-22T05:05:22.194Z,82
2023-04-22T05:07:22.102Z,82
2023-04-22T05:09:22.090Z,82
2023-04-22T05:11:30.151Z,82
2023-04-22T05:13:22.214Z,81
2023-04-22T05:17:22.186Z,81
2023-04-22T05:19:31.350Z,81
2023-04-22T05:21:22.151Z,81
2023-04-22T05:23:22.213Z,81
2023-04-22T05:25:31.397Z,81
2023-04-22T05:27:21.642Z,81
2023-04-22T05:29:25.759Z,80
2023-04-22T05:31:22.153Z,80
2023-04-22T05:33:22.181Z,81
2023-04-22T05:35:20.655Z,80
2023-04-22T05:37:22.144Z,80
2023-04-22T05:39:22.045Z,80
2023-04-22T05:41:22.210Z,80
2023-04-22T05:45:22.110Z,80
2023-04-22T05:47:22.039Z,79
2023-04-22T05:49:29.709Z,79
2023-04-22T05:51:21.809Z,79
2023-04-22T05:53:23.274Z,79
2023-04-22T05:55:22.216Z,79
2023-04-22T05:57:21.840Z,79
2023-04-22T05:59:25.086Z,79
2023-04-22T06:01:21.642Z,76
2023-04-22T06:05:22.207Z,73
2023-04-22T06:07:21.641Z,73
2023-04-22T06:09:21.687Z,74
2023-04-22T06:11:22.183Z,74
2023-04-22T06:13:31.388Z,73
2023-04-22T06:15:22.146Z,73
2023-04-22T06:17:22.145Z,72
2023-04-22T06:19:21.453Z,70
2023-04-22T06:21:22.163Z,70
2023-04-22T06:23:22.124Z,70
2023-04-22T06:25:22.149Z,71
2023-04-22T06:27:22.112Z,69
2023-04-22T06:29:23.626Z,69
2023-04-22T06:31:22.277Z,69
2023-04-22T06:33:22.059Z,70
2023-04-22T06:35:24.018Z,70
2023-04-22T06:37:22.123Z,71
2023-04-22T06:39:21.923Z,69
2023-04-22T06:43:22.167Z,69
2023-04-22T06:45:22.088Z,68
2023-04-22T06:47:21.734Z,68
2023-04-22T06:53:24.658Z,68
2023-04-22T06:55:22.221Z,69
2023-04-22T06:57:24.227Z,69
2023-04-22T06:59:22.185Z,68
2023-04-22T07:03:22.130Z,67
2023-04-22T07:05:27.808Z,68
2023-04-22T07:09:22.141Z,68
2023-04-22T07:11:22.189Z,68
2023-04-22T07:13:31.643Z,69
2023-04-22T07:15:22.100Z,68
2023-04-22T07:17:30.858Z,68
2023-04-22T07:19:20.682Z,68
2023-04-22T07:21:22.219Z,67
2023-04-22T07:23:27.020Z,67
2023-04-22T07:25:22.096Z,66
2023-04-22T07:27:22.225Z,66
2023-04-22T07:29:22.145Z,67
2023-04-22T07:31:22.234Z,67
2023-04-22T07:33:27.002Z,67
2023-04-22T07:35:21.447Z,68
2023-04-22T07:37:23.956Z,66
2023-04-22T07:39:22.176Z,66
2023-04-22T07:41:22.126Z,67
2023-04-22T07:45:21.733Z,64
2023-04-22T07:47:24.297Z,65
2023-04-22T07:51:22.196Z,64
2023-04-22T07:53:22.216Z,65
2023-04-22T07:57:21.352Z,63
2023-04-22T07:59:21.408Z,64
2023-04-22T08:01:22.170Z,65
2023-04-22T08:03:22.340Z,64
2023-04-22T08:05:21.915Z,62
2023-04-22T08:09:27.384Z,63
2023-04-22T08:11:21.755Z,62
2023-04-22T08:15:22.089Z,63
2023-04-22T08:17:30.276Z,63
2023-04-22T08:19:21.772Z,63
2023-04-22T08:21:21.826Z,64
2023-04-22T08:23:23.722Z,63
2023-04-22T08:25:22.087Z,62
2023-04-22T08:27:22.154Z,63
2023-04-22T08:29:22.210Z,63
2023-04-22T08:33:22.181Z,62
2023-04-22T08:35:22.188Z,62
2023-04-22T08:37:22.211Z,62
2023-04-22T08:39:22.214Z,61
2023-04-22T08:41:21.829Z,62
2023-04-22T08:43:22.113Z,59
2023-04-22T08:45:22.093Z,59
2023-04-22T08:47:18.911Z,61
2023-04-22T08:49:22.156Z,61
2023-04-22T08:53:24.324Z,59
2023-04-22T08:55:22.204Z,60
2023-04-22T08:57:22.230Z,60
2023-04-22T08:59:22.177Z,60
2023-04-22T09:01:21.887Z,60
2023-04-22T09:03:22.162Z,60
2023-04-22T09:05:22.124Z,61
2023-04-22T09:07:22.255Z,61
2023-04-22T09:11:21.791Z,60
2023-04-22T09:13:22.135Z,60
2023-04-22T09:15:21.872Z,60
2023-04-22T09:17:20.714Z,60
2023-04-22T09:19:22.174Z,60
2023-04-22T09:21:21.753Z,59
2023-04-22T09:23:21.969Z,59
2023-04-22T09:25:22.168Z,59
2023-04-22T09:27:20.714Z,59
2023-04-22T09:29:21.948Z,59
2023-04-22T09:33:22.187Z,58
2023-04-22T09:35:22.243Z,58
2023-04-22T09:37:22.275Z,59
2023-04-22T09:39:22.246Z,58
2023-04-22T09:41:21.709Z,59
2023-04-22T09:43:22.272Z,60
2023-04-22T09:45:22.235Z,58
2023-04-22T09:47:24.268Z,57
2023-04-22T09:49:22.185Z,58
2023-04-22T09:51:21.768Z,59
2023-04-22T09:53:21.572Z,60
2023-04-22T09:55:21.447Z,60
2023-04-22T09:57:22.265Z,59
2023-04-22T09:59:22.223Z,59
2023-04-22T10:01:22.185Z,58
2023-04-22T10:03:22.047Z,59
2023-04-22T10:05:22.221Z,59
2023-04-22T10:09:21.553Z,59
2023-04-22T10:11:21.787Z,60
2023-04-22T10:13:22.486Z,61
2023-04-22T10:15:21.534Z,61
2023-04-22T10:17:22.199Z,61
2023-04-22T10:19:31.053Z,61
2023-04-22T10:21:22.287Z,61
2023-04-22T10:23:22.374Z,61
2023-04-22T10:25:22.103Z,61
2023-04-22T10:27:22.235Z,60
2023-04-22T10:29:20.755Z,59
2023-04-22T10:31:22.232Z,59
2023-04-22T10:35:22.171Z,59
2023-04-22T10:37:22.226Z,60
2023-04-22T10:39:22.420Z,60
2023-04-22T10:41:20.344Z,62
2023-04-22T10:43:22.232Z,60
2023-04-22T10:45:22.185Z,60
2023-04-22T10:47:20.749Z,60
2023-04-22T10:49:22.109Z,59
2023-04-22T10:51:20.335Z,58
2023-04-22T10:53:21.545Z,59
2023-04-22T10:57:22.152Z,61
2023-04-22T10:59:22.222Z,61
2023-04-22T11:03:22.483Z,56
2023-04-22T11:05:24.042Z,57
2023-04-22T11:07:22.225Z,57
2023-04-22T11:09:22.153Z,57
2023-04-22T11:11:21.809Z,56
2023-04-22T11:13:22.205Z,58
2023-04-22T11:15:27.004Z,58
2023-04-22T11:17:22.255Z,58
2023-04-22T11:19:31.564Z,57
2023-04-22T11:21:20.174Z,57
2023-04-22T11:23:25.982Z,56
2023-04-22T11:25:21.774Z,56
2023-04-22T11:27:22.216Z,53
2023-04-22T11:29:28.081Z,55
2023-04-22T11:31:22.258Z,55
2023-04-22T11:33:22.187Z,55
2023-04-22T11:35:23.167Z,53
2023-04-22T11:37:22.153Z,54
2023-04-22T11:39:22.208Z,55
2023-04-22T11:41:21.800Z,56
2023-04-22T11:43:22.255Z,56
2023-04-22T11:45:24.072Z,55
2023-04-22T11:47:22.181Z,55
2023-04-22T11:49:22.310Z,54
2023-04-22T11:51:21.452Z,53
2023-04-22T11:53:21.738Z,55
2023-04-22T11:55:22.255Z,55
2023-04-22T11:57:22.037Z,54
2023-04-22T11:59:21.846Z,55
2023-04-22T12:01:21.789Z,55
2023-04-22T12:03:22.285Z,56
2023-04-22T12:07:22.218Z,54
2023-04-22T12:09:24.663Z,55
2023-04-22T12:11:21.497Z,53
2023-04-22T12:13:22.169Z,54
2023-04-22T12:15:22.270Z,53
2023-04-22T12:17:22.206Z,53
2023-04-22T12:19:22.147Z,55
2023-04-22T12:21:21.799Z,53
2023-04-22T12:23:19.216Z,53
2023-04-22T12:25:31.459Z,53
2023-04-22T12:27:22.222Z,54
2023-04-22T12:29:24.693Z,51
2023-04-22T12:31:21.670Z,54
2023-04-22T12:35:23.393Z,53
2023-04-22T12:37:22.204Z,54
2023-04-22T12:39:22.226Z,54
2023-04-22T12:41:23.850Z,56
2023-04-22T12:45:21.761Z,54
2023-04-22T12:47:22.258Z,55
2023-04-22T12:49:22.147Z,55
2023-04-22T12:51:23.828Z,55
2023-04-22T12:53:22.162Z,56
2023-04-22T12:55:22.265Z,56
2023-04-22T12:57:22.267Z,55
2023-04-22T12:59:28.176Z,53
2023-04-22T13:01:22.164Z,54
2023-04-22T13:03:22.262Z,54
2023-04-22T13:05:22.211Z,54
2023-04-22T13:07:22.216Z,53
2023-04-22T13:09:21.507Z,54
2023-04-22T13:13:31.653Z,53
2023-04-22T13:15:22.236Z,54
2023-04-22T13:17:27.381Z,53
2023-04-22T13:19:22.179Z,53
2023-04-22T13:21:21.792Z,53
2023-04-22T13:23:22.252Z,53
2023-04-22T13:25:22.181Z,54
2023-04-22T13:27:26.774Z,53
2023-04-22T13:29:21.465Z,55
2023-04-22T13:33:22.120Z,55
2023-04-22T13:35:22.197Z,53
2023-04-22T13:37:31.720Z,52
2023-04-22T13:39:21.829Z,53
2023-04-22T13:41:26.009Z,52
2023-04-22T13:43:22.170Z,52
2023-04-22T13:45:22.200Z,51
2023-04-22T13:47:25.683Z,52
2023-04-22T13:49:21.791Z,52
2023-04-22T13:51:22.311Z,51
2023-04-22T13:53:24.444Z,50
2023-04-22T13:57:22.352Z,51
2023-04-22T13:59:22.208Z,50
2023-04-22T14:01:22.222Z,49
2023-04-22T14:03:27.699Z,47
2023-04-22T14:05:22.274Z,46
2023-04-22T14:07:21.961Z,48
2023-04-22T14:09:27.939Z,47
2023-04-22T14:11:22.324Z,47
2023-04-22T14:13:22.232Z,48
2023-04-22T14:15:31.331Z,51
2023-04-22T14:17:22.436Z,49
2023-04-22T14:21:22.177Z,48
2023-04-22T14:23:22.277Z,49
2023-04-22T14:25:31.841Z,48
2023-04-22T14:27:22.327Z,47
2023-04-22T14:29:29.202Z,47
2023-04-22T14:31:22.269Z,47
2023-04-22T14:33:22.188Z,48
2023-04-22T14:35:22.320Z,51
2023-04-22T14:37:31.775Z,51
2023-04-22T14:39:22.287Z,56
2023-04-22T14:41:23.438Z,51
2023-04-22T14:43:22.363Z,50
2023-04-22T14:45:22.325Z,49
2023-04-22T14:47:25.685Z,52
2023-04-22T14:49:22.301Z,47
2023-04-22T14:51:27.605Z,48
2023-04-22T14:55:23.965Z,51
2023-04-22T14:57:22.354Z,52
2023-04-22T14:59:27.644Z,49
2023-04-22T15:01:22.465Z,48
2023-04-22T15:03:22.576Z,50
2023-04-22T15:05:28.084Z,48
2023-04-22T15:07:22.353Z,46
2023-04-22T15:09:22.338Z,47
2023-04-22T15:11:22.290Z,47
2023-04-22T15:13:22.447Z,47
2023-04-22T15:15:25.816Z,48
2023-04-22T15:17:22.378Z,48
2023-04-22T15:19:22.437Z,48
2023-04-22T15:21:30.636Z,49
2023-04-22T15:23:22.412Z,50
2023-04-22T15:25:22.702Z,50
2023-04-22T15:29:27.716Z,49
2023-04-22T15:31:22.353Z,49
2023-04-22T15:33:21.985Z,49
2023-04-22T15:35:22.439Z,49
2023-04-22T15:37:31.851Z,46
2023-04-22T15:39:22.087Z,48
2023-04-22T15:41:28.669Z,47
2023-04-22T15:43:22.513Z,48
2023-04-22T15:45:26.983Z,47
2023-04-22T15:47:22.560Z,48
2023-04-22T15:49:32.356Z,48
2023-04-22T15:51:22.480Z,51
2023-04-22T15:53:22.502Z,51
2023-04-22T15:55:22.602Z,50
2023-04-22T15:57:30.749Z,51
2023-04-22T15:59:22.460Z,51
2023-04-22T16:01:22.522Z,53
2023-04-22T16:03:22.706Z,52
2023-04-22T16:05:22.098Z,53
2023-04-22T16:07:22.442Z,51
2023-04-22T16:09:22.460Z,51
2023-04-22T16:11:27.751Z,51
2023-04-22T16:13:22.112Z,50
2023-04-22T16:15:22.672Z,51
2023-04-22T16:17:20.675Z,52
2023-04-22T16:19:22.556Z,52
2023-04-22T16:21:27.848Z,52
2023-04-22T16:23:22.175Z,53
2023-04-22T16:25:22.975Z,53
2023-04-22T16:27:22.951Z,52
2023-04-22T16:29:22.616Z,53
2023-04-22T16:31:22.852Z,53
2023-04-22T16:33:22.616Z,53
2023-04-22T16:35:26.260Z,53
2023-04-22T16:37:20.810Z,53
2023-04-22T16:39:22.644Z,53
2023-04-22T16:41:22.635Z,54
2023-04-22T16:43:22.380Z,53
2023-04-22T16:45:22.221Z,53
2023-04-22T16:47:30.334Z,53
2023-04-22T16:49:22.688Z,53
2023-04-22T16:51:25.967Z,54
2023-04-22T16:53:22.298Z,54
2023-04-22T16:55:22.713Z,54
2023-04-22T16:57:22.741Z,55
2023-04-22T16:59:24.176Z,55
2023-04-22T17:01:22.292Z,55
2023-04-22T17:03:24.019Z,55
2023-04-22T17:05:22.754Z,55
2023-04-22T17:07:22.394Z,54
2023-04-22T17:09:22.730Z,54
2023-04-22T17:11:22.776Z,55
2023-04-22T17:13:22.870Z,55
2023-04-22T17:15:22.722Z,56
2023-04-22T17:17:22.731Z,56
2023-04-22T17:19:22.837Z,56
2023-04-22T17:21:19.552Z,56
2023-04-22T17:23:22.789Z,56
2023-04-22T17:25:23.137Z,55
2023-04-22T17:29:22.915Z,55
2023-04-22T17:33:22.894Z,55
2023-04-22T17:35:22.904Z,56
2023-04-22T17:37:21.036Z,55
2023-04-22T17:39:20.991Z,57
2023-04-22T17:41:23.785Z,57
2023-04-22T17:43:22.549Z,55
2023-04-22T17:45:22.928Z,57
2023-04-22T17:47:23.121Z,65
2023-04-22T17:49:20.997Z,58
2023-04-22T17:51:23.133Z,59
2023-04-22T17:53:22.694Z,60
2023-04-22T17:55:23.254Z,59
2023-04-22T17:57:23.145Z,59
2023-04-22T17:59:23.003Z,61
2023-04-22T18:01:22.656Z,59
2023-04-22T18:03:23.369Z,59
2023-04-22T18:05:22.960Z,59
2023-04-22T18:07:22.610Z,58
2023-04-22T18:09:23.318Z,61
2023-04-22T18:11:23.182Z,60
2023-04-22T18:13:23.801Z,58
2023-04-22T18:17:23.289Z,61
2023-04-22T18:19:23.254Z,58
2023-04-22T18:21:23.238Z,58
2023-04-22T18:23:22.825Z,61
2023-04-22T18:25:23.712Z,60
2023-04-22T18:27:23.293Z,61
2023-04-22T18:29:23.310Z,60
2023-04-22T18:31:22.967Z,61
2023-04-22T18:33:23.392Z,65
2023-04-22T18:35:23.279Z,65
2023-04-22T18:37:23.397Z,59
2023-04-22T18:41:22.922Z,55
2023-04-22T18:43:23.346Z,55
2023-04-22T18:45:23.564Z,55
2023-04-22T18:47:23.366Z,54
2023-04-22T18:49:22.949Z,56
2023-04-22T18:51:22.838Z,56
2023-04-22T18:53:23.582Z,56
2023-04-22T18:55:23.587Z,57
2023-04-22T18:59:23.386Z,56
2023-04-22T19:01:21.551Z,56
2023-04-22T19:03:23.147Z,56
2023-04-22T19:05:23.478Z,57
2023-04-22T19:07:21.666Z,58
2023-04-22T19:09:23.125Z,61
2023-04-22T19:11:23.526Z,57
2023-04-22T19:13:29.474Z,59
2023-04-22T19:15:23.088Z,59
2023-04-22T19:17:23.628Z,60
2023-04-22T19:21:23.657Z,61
2023-04-22T19:23:23.668Z,61
2023-04-22T19:25:23.424Z,61
2023-04-22T19:27:23.758Z,61
2023-04-22T19:29:23.287Z,62
2023-04-22T19:31:23.389Z,62
2023-04-22T19:33:23.323Z,63
2023-04-22T19:35:23.334Z,64
2023-04-22T19:37:23.440Z,65
2023-04-22T19:39:23.448Z,65
2023-04-22T19:41:23.462Z,65
2023-04-22T19:43:22.960Z,66
2023-04-22T19:45:23.121Z,65
2023-04-22T19:47:23.462Z,67
2023-04-22T19:49:23.542Z,65
2023-04-22T19:51:23.408Z,66
2023-04-22T19:53:23.418Z,65
2023-04-22T19:55:24.880Z,65
2023-04-22T19:57:23.462Z,65
2023-04-22T19:59:23.495Z,65
2023-04-22T20:03:23.563Z,66
2023-04-22T20:05:23.548Z,66
2023-04-22T20:07:34.480Z,65
2023-04-22T20:11:23.758Z,65
2023-04-22T20:13:23.554Z,65
2023-04-22T20:15:23.535Z,65
2023-04-22T20:17:32.856Z,66
2023-04-22T20:19:23.662Z,66
2023-04-22T20:21:26.318Z,65
2023-04-22T20:23:23.389Z,67
2023-04-22T20:25:23.747Z,70
2023-04-22T20:29:23.729Z,70
2023-04-22T20:31:23.761Z,70
2023-04-22T20:33:23.814Z,71
2023-04-22T20:35:23.813Z,69
2023-04-22T20:39:23.816Z,71
2023-04-22T20:41:23.919Z,70
2023-04-22T20:45:23.826Z,70
2023-04-22T20:47:23.895Z,70
2023-04-22T20:49:23.985Z,70
2023-04-22T20:51:23.954Z,70
2023-04-22T20:53:23.972Z,72
2023-04-22T20:57:23.979Z,72
2023-04-22T20:59:33.883Z,70
2023-04-22T21:03:24.346Z,69
2023-04-22T21:05:24.166Z,69
2023-04-22T21:09:24.212Z,68
2023-04-22T21:11:24.618Z,69
2023-04-22T21:13:32.399Z,69
2023-04-22T21:15:24.285Z,69
2023-04-22T21:17:24.327Z,69
2023-04-22T21:19:24.312Z,69
2023-04-22T21:21:24.638Z,70
2023-04-22T21:23:24.349Z,69
2023-04-22T21:25:24.445Z,70
2023-04-22T21:27:24.400Z,70
2023-04-22T21:29:24.550Z,69
2023-04-22T21:31:24.515Z,69
2023-04-22T21:33:24.534Z,70
2023-04-22T21:35:24.553Z,70
2023-04-22T21:37:24.576Z,70
2023-04-22T21:39:24.572Z,68
2023-04-22T21:41:24.651Z,69
2023-04-22T21:43:24.638Z,69
2023-04-22T21:45:24.595Z,70
2023-04-22T21:47:24.435Z,69
2023-04-22T21:49:27.834Z,69
2023-04-22T21:51:24.675Z,69
2023-04-22T21:53:24.802Z,69
2023-04-22T21:55:24.740Z,70
2023-04-22T21:57:24.830Z,70
2023-04-22T21:59:24.842Z,70
2023-04-22T22:01:24.902Z,71
2023-04-22T22:03:25.478Z,70
2023-04-22T22:05:25.267Z,70
2023-04-22T22:07:25.017Z,70
2023-04-22T22:09:25.224Z,70
2023-04-22T22:13:25.158Z,71
2023-04-22T22:15:25.097Z,71
2023-04-22T22:17:25.146Z,71
2023-04-22T22:19:25.713Z,72
2023-04-22T22:21:25.359Z,72
2023-04-22T22:23:25.263Z,72
2023-04-22T22:25:28.571Z,72
2023-04-22T22:29:25.300Z,72
2023-04-22T22:31:25.526Z,72
2023-04-22T22:33:25.360Z,72
2023-04-22T22:35:25.480Z,73
2023-04-22T22:37:27.225Z,72
2023-04-22T22:39:25.500Z,72
2023-04-22T22:41:25.614Z,71
2023-04-22T22:43:25.411Z,71
2023-04-22T22:45:25.599Z,72
2023-04-22T22:47:25.564Z,72
2023-04-22T22:49:26.410Z,72
2023-04-22T22:51:25.654Z,72
2023-04-22T22:53:25.846Z,72
2023-04-22T22:55:25.716Z,72
2023-04-22T22:57:25.738Z,72
2023-04-22T22:59:25.829Z,73
2023-04-22T23:01:24.610Z,72
2023-04-22T23:03:25.901Z,72
2023-04-22T23:05:26.957Z,73
2023-04-22T23:07:25.935Z,73
2023-04-22T23:09:32.390Z,73
2023-04-22T23:11:25.982Z,74
2023-04-22T23:13:26.284Z,74
2023-04-22T23:15:25.967Z,73
2023-04-22T23:17:28.390Z,73
2023-04-22T23:19:26.049Z,74
2023-04-22T23:21:35.535Z,74
2023-04-22T23:23:26.096Z,74
2023-04-22T23:25:26.277Z,74
2023-04-22T23:27:26.136Z,74
2023-04-22T23:29:26.122Z,74
2023-04-22T23:31:26.188Z,74
2023-04-22T23:33:26.366Z,74
2023-04-22T23:35:26.237Z,75
2023-04-22T23:37:26.116Z,75
2023-04-22T23:39:26.013Z,75
2023-04-22T23:41:24.817Z,75
2023-04-22T23:43:26.331Z,75
2023-04-22T23:45:26.335Z,76
2023-04-22T23:47:26.404Z,75
2023-04-22T23:49:26.259Z,75
2023-04-22T23:51:26.433Z,76
2023-04-22T23:53:32.310Z,74
2023-04-22T23:55:26.502Z,75
2023-04-22T23:57:35.788Z,75
2023-04-22T23:59:26.556Z,74
